createdAt,value
2017-09-15T00:01:33.719Z,1.25
2017-09-15T00:04:02.122Z,1.10
2017-09-15T00:06:31.371Z,1.02
2017-09-15T00:08:59.762Z,1.30
2017-09-15T00:11:28.139Z,1.15
2017-09-15T00:13:56.617Z,1.30
2017-09-15T00:16:24.987Z,0.98
2017-09-15T00:18:53.349Z,1.33
2017-09-15T00:21:21.755Z,0.90
2017-09-15T00:23:50.134Z,1.30
2017-09-15T00:26:18.523Z,1.77
2017-09-15T00:28:47.314Z,1.52
2017-09-15T00:31:15.703Z,0.70
2017-09-15T00:33:44.071Z,0.93
2017-09-15T00:36:12.507Z,0.77
2017-09-15T00:38:40.897Z,1.25
2017-09-15T00:41:10.398Z,1.83
2017-09-15T00:43:38.845Z,1.17
2017-09-15T00:46:08.015Z,1.50
2017-09-15T00:48:36.494Z,1.45
2017-09-15T00:51:05.333Z,1.10
2017-09-15T00:53:33.731Z,1.92
2017-09-15T00:56:02.550Z,0.95
2017-09-15T00:58:30.985Z,2.40
2017-09-15T01:00:59.354Z,0.95
2017-09-15T01:03:27.743Z,1.20
2017-09-15T01:05:56.184Z,1.70
2017-09-15T01:08:24.603Z,1.67
2017-09-15T01:10:53.012Z,1.80
2017-09-15T01:13:21.442Z,1.00
2017-09-15T01:15:50.582Z,1.73
2017-09-15T01:18:18.963Z,1.33
2017-09-15T01:20:47.386Z,1.75
2017-09-15T01:23:16.540Z,1.20
2017-09-15T01:25:44.926Z,1.25
2017-09-15T01:28:13.328Z,1.40
2017-09-15T01:30:42.462Z,1.77
2017-09-15T01:33:10.826Z,1.33
2017-09-15T01:35:39.233Z,1.70
2017-09-15T01:38:07.621Z,1.50
2017-09-15T01:40:35.990Z,1.25
2017-09-15T01:43:04.413Z,1.65
2017-09-15T01:45:32.843Z,0.98
2017-09-15T01:48:01.221Z,1.65
2017-09-15T01:50:29.616Z,1.27
2017-09-15T01:52:59.475Z,1.70
2017-09-15T01:55:27.910Z,1.27
2017-09-15T01:57:56.308Z,1.40
2017-09-15T02:00:24.911Z,1.30
2017-09-15T02:02:54.042Z,1.35
2017-09-15T02:05:22.487Z,0.93
2017-09-15T02:07:50.895Z,1.20
2017-09-15T02:10:19.316Z,1.20
2017-09-15T02:12:47.805Z,1.50
2017-09-15T02:15:16.192Z,1.50
2017-09-15T02:17:44.569Z,1.70
2017-09-15T02:20:12.993Z,1.52
2017-09-15T02:22:41.403Z,1.40
2017-09-15T02:25:10.315Z,0.90
2017-09-15T02:27:39.440Z,1.20
2017-09-15T02:30:09.030Z,1.10
2017-09-15T02:32:38.011Z,1.58
2017-09-15T02:35:06.891Z,1.05
2017-09-15T02:37:35.755Z,1.90
2017-09-15T02:40:04.632Z,1.70
2017-09-15T02:42:33.369Z,1.48
2017-09-15T02:45:02.207Z,1.62
2017-09-15T02:47:31.067Z,1.40
2017-09-15T02:50:00.740Z,1.45
2017-09-15T02:52:29.608Z,1.40
2017-09-15T02:54:58.538Z,1.35
2017-09-15T02:57:27.492Z,1.02
2017-09-15T02:59:55.858Z,1.48
2017-09-15T03:02:24.260Z,1.27
2017-09-15T03:04:52.659Z,1.15
2017-09-15T03:07:21.034Z,1.50
2017-09-15T03:09:49.434Z,1.60
2017-09-15T03:12:18.104Z,1.42
2017-09-15T03:14:46.490Z,1.15
2017-09-15T03:17:14.862Z,2.55
2017-09-15T03:19:43.332Z,1.90
2017-09-15T03:22:11.755Z,3.40
2017-09-15T03:24:40.130Z,1.90
2017-09-15T03:27:09.801Z,1.23
2017-09-15T03:29:38.179Z,1.52
2017-09-15T03:32:06.551Z,2.00
2017-09-15T03:34:34.965Z,3.47
2017-09-15T03:37:04.100Z,1.80
2017-09-15T03:39:32.478Z,1.15
2017-09-15T03:42:00.895Z,1.37
2017-09-15T03:44:29.279Z,1.00
2017-09-15T03:46:57.658Z,1.77
2017-09-15T03:49:26.076Z,1.48
2017-09-15T03:51:54.488Z,1.37
2017-09-15T03:54:22.872Z,4.50
2017-09-15T03:56:51.563Z,4.80
2017-09-15T03:59:20.186Z,2.50
2017-09-15T04:01:49.332Z,1.52
2017-09-15T04:04:17.731Z,1.92
2017-09-15T04:06:46.111Z,2.20
2017-09-15T04:09:14.486Z,1.35
2017-09-15T04:11:42.907Z,2.03
2017-09-15T04:14:11.287Z,1.30
2017-09-15T04:16:39.677Z,1.30
2017-09-15T04:19:08.150Z,1.40
2017-09-15T04:21:36.583Z,1.30
2017-09-15T04:24:04.955Z,1.50
2017-09-15T04:26:33.355Z,1.80
2017-09-15T04:29:01.765Z,7.57
2017-09-15T04:31:30.891Z,4.30
2017-09-15T04:33:59.294Z,2.60
2017-09-15T04:36:27.670Z,2.50
2017-09-15T04:38:56.047Z,2.40
2017-09-15T04:41:24.472Z,1.92
2017-09-15T04:43:52.847Z,1.67
2017-09-15T04:46:21.221Z,4.25
2017-09-15T04:48:50.471Z,4.28
2017-09-15T04:51:18.850Z,2.72
2017-09-15T04:53:47.246Z,1.80
2017-09-15T04:56:15.643Z,1.75
2017-09-15T04:58:45.052Z,1.80
2017-09-15T05:01:14.198Z,2.15
2017-09-15T05:03:42.621Z,1.87
2017-09-15T05:06:11.046Z,1.67
2017-09-15T05:08:39.444Z,1.70
2017-09-15T05:11:07.874Z,1.80
2017-09-15T05:13:37.018Z,1.80
2017-09-15T05:16:05.393Z,3.17
2017-09-15T05:18:33.822Z,2.12
2017-09-15T05:21:02.966Z,1.85
2017-09-15T05:23:31.345Z,1.10
2017-09-15T05:25:59.761Z,3.25
2017-09-15T05:28:28.217Z,1.45
2017-09-15T05:30:56.594Z,1.48
2017-09-15T05:33:25.006Z,1.33
2017-09-15T05:35:54.161Z,1.50
2017-09-15T05:38:22.574Z,1.83
2017-09-15T05:40:51.807Z,2.17
2017-09-15T05:43:20.225Z,1.98
2017-09-15T05:45:48.627Z,1.48
2017-09-15T05:48:17.147Z,1.67
2017-09-15T05:50:45.513Z,2.10
2017-09-15T05:53:14.661Z,1.80
2017-09-15T05:55:43.117Z,1.80
2017-09-15T05:58:11.493Z,2.00
2017-09-15T06:00:39.934Z,2.47
2017-09-15T06:03:08.431Z,1.95
2017-09-15T06:05:37.619Z,1.90
2017-09-15T06:08:06.787Z,1.98
2017-09-15T06:10:35.480Z,1.90
2017-09-15T06:13:04.964Z,2.00
2017-09-15T06:15:35.008Z,2.20
2017-09-15T06:18:03.469Z,2.15
2017-09-15T06:20:31.905Z,1.45
2017-09-15T06:23:00.314Z,1.77
2017-09-15T06:25:28.751Z,1.58
2017-09-15T06:27:57.203Z,1.48
2017-09-15T06:30:25.596Z,1.30
2017-09-15T06:32:54.014Z,2.42
2017-09-15T06:35:22.405Z,1.30
2017-09-15T06:37:50.819Z,1.60
2017-09-15T06:40:19.236Z,1.63
2017-09-15T06:42:47.748Z,1.50
2017-09-15T06:45:16.228Z,1.90
2017-09-15T06:47:44.660Z,2.00
2017-09-15T06:50:13.826Z,2.43
2017-09-15T06:52:42.232Z,2.03
2017-09-15T06:55:11.447Z,2.43
2017-09-15T06:57:39.937Z,2.40
2017-09-15T07:00:08.367Z,1.40
2017-09-15T07:02:36.774Z,1.90
2017-09-15T07:05:06.011Z,1.97
2017-09-15T07:07:34.417Z,1.57
2017-09-15T07:10:02.856Z,1.73
2017-09-15T07:12:31.279Z,1.60
2017-09-15T07:14:59.682Z,3.03
2017-09-15T07:17:28.119Z,1.30
2017-09-15T07:19:56.504Z,1.60
2017-09-15T07:22:24.898Z,2.00
2017-09-15T07:24:53.323Z,1.70
2017-09-15T07:27:21.721Z,1.53
2017-09-15T07:29:50.111Z,1.50
2017-09-15T07:32:18.571Z,1.40
2017-09-15T07:34:46.945Z,1.40
2017-09-15T07:37:15.333Z,1.50
2017-09-15T07:39:43.752Z,1.67
2017-09-15T07:42:12.272Z,0.93
2017-09-15T07:44:40.649Z,1.70
2017-09-15T07:47:09.098Z,2.00
2017-09-15T07:49:37.490Z,1.33
2017-09-15T07:52:06.653Z,1.63
2017-09-15T07:54:35.086Z,1.50
2017-09-15T07:57:03.466Z,1.60
2017-09-15T07:59:31.866Z,1.60
2017-09-15T08:02:00.303Z,1.17
2017-09-15T08:04:28.697Z,1.40
2017-09-15T08:06:57.083Z,1.00
2017-09-15T08:09:25.506Z,1.53
2017-09-15T08:11:53.923Z,1.50
2017-09-15T08:14:23.104Z,1.13
2017-09-15T08:16:51.526Z,1.30
2017-09-15T08:19:19.918Z,1.60
2017-09-15T08:21:48.294Z,1.47
2017-09-15T08:24:16.734Z,1.90
2017-09-15T08:26:45.896Z,1.37
2017-09-15T08:29:14.288Z,1.20
2017-09-15T08:31:42.699Z,1.90
2017-09-15T08:34:11.862Z,1.30
2017-09-15T08:36:40.264Z,9.77
2017-09-15T08:39:09.459Z,1.63
2017-09-15T08:41:38.772Z,0.90
2017-09-15T08:44:07.183Z,1.00
2017-09-15T08:46:35.639Z,1.47
2017-09-15T08:49:04.080Z,1.27
2017-09-15T08:51:32.461Z,0.90
2017-09-15T08:54:00.957Z,1.20
2017-09-15T08:56:29.355Z,1.20
2017-09-15T08:58:57.747Z,1.10
2017-09-15T09:01:26.166Z,1.20
2017-09-15T09:03:54.793Z,1.50
2017-09-15T09:06:23.973Z,1.00
2017-09-15T09:08:52.532Z,1.33
2017-09-15T09:11:21.046Z,6.10
2017-09-15T09:13:50.224Z,0.90
2017-09-15T09:16:18.725Z,1.07
2017-09-15T09:18:47.919Z,1.53
2017-09-15T09:21:17.211Z,1.73
2017-09-15T09:23:45.724Z,1.50
2017-09-15T09:26:14.168Z,0.90
2017-09-15T09:28:43.560Z,1.47
2017-09-15T09:31:12.026Z,1.30
2017-09-15T09:33:40.417Z,1.20
2017-09-15T09:36:08.826Z,1.37
2017-09-15T09:38:37.238Z,1.13
2017-09-15T09:41:05.646Z,1.00
2017-09-15T09:43:34.043Z,1.27
2017-09-15T09:46:02.530Z,1.00
2017-09-15T09:48:30.935Z,1.50
2017-09-15T09:50:59.328Z,1.07
2017-09-15T09:53:27.768Z,1.27
2017-09-15T09:55:56.928Z,1.30
2017-09-15T09:58:25.323Z,0.90
2017-09-15T10:00:53.746Z,1.27
2017-09-15T10:03:22.141Z,1.00
2017-09-15T10:05:50.528Z,0.83
2017-09-15T10:08:19.115Z,0.63
2017-09-15T10:10:47.504Z,1.10
2017-09-15T10:13:15.888Z,1.90
2017-09-15T10:15:44.358Z,1.43
2017-09-15T10:18:12.797Z,2.53
2017-09-15T10:20:41.233Z,2.40
2017-09-15T10:23:09.735Z,1.60
2017-09-15T10:25:38.905Z,2.03
2017-09-15T10:28:07.283Z,1.53
2017-09-15T10:30:35.702Z,2.00
2017-09-15T10:33:04.839Z,2.37
2017-09-15T10:35:33.236Z,1.10
2017-09-15T10:38:01.940Z,1.57
2017-09-15T10:40:30.376Z,1.63
2017-09-15T10:42:58.782Z,1.87
2017-09-15T10:45:27.302Z,1.20
2017-09-15T10:47:55.732Z,1.27
2017-09-15T10:50:24.117Z,1.10
2017-09-15T10:52:52.817Z,0.87
2017-09-15T10:55:21.359Z,0.90
2017-09-15T11:00:55.878Z,1.03
2017-09-15T11:03:25.064Z,1.30
2017-09-15T11:05:57.306Z,1.20
2017-09-15T11:08:25.786Z,1.03
2017-09-15T11:10:54.192Z,0.63
2017-09-15T11:13:23.353Z,1.20
2017-09-15T11:15:51.804Z,0.77
2017-09-15T11:18:20.188Z,0.60
2017-09-15T11:20:48.571Z,1.77
2017-09-15T11:23:16.994Z,1.90
2017-09-15T11:25:45.372Z,1.53
2017-09-15T11:28:13.747Z,1.23
2017-09-15T11:30:42.253Z,0.87
2017-09-15T11:33:11.447Z,0.90
2017-09-15T11:35:40.644Z,1.10
2017-09-15T11:38:09.104Z,1.20
2017-09-15T11:40:37.580Z,1.20
2017-09-15T11:43:05.984Z,1.43
2017-09-15T11:45:35.206Z,1.33
2017-09-15T11:48:03.797Z,0.87
2017-09-15T11:50:32.228Z,1.63
2017-09-15T11:53:00.662Z,1.50
2017-09-15T11:55:29.048Z,0.90
2017-09-15T11:57:57.419Z,1.00
2017-09-15T12:00:25.935Z,1.03
2017-09-15T12:02:54.357Z,1.10
2017-09-15T12:05:22.735Z,1.17
2017-09-15T12:07:51.211Z,1.33
2017-09-15T12:10:19.639Z,1.20
2017-09-15T12:12:48.024Z,1.10
2017-09-15T12:15:16.437Z,1.80
2017-09-15T12:17:45.606Z,1.43
2017-09-15T12:20:14.046Z,0.87
2017-09-15T12:22:42.456Z,1.30
2017-09-15T12:25:10.836Z,0.80
2017-09-15T12:27:39.262Z,1.20
2017-09-15T12:30:07.706Z,1.17
2017-09-15T12:32:36.094Z,1.23
2017-09-15T12:35:04.470Z,1.30
2017-09-15T12:37:32.892Z,1.73
2017-09-15T12:40:01.288Z,1.83
2017-09-15T12:42:29.691Z,1.77
2017-09-15T12:44:58.115Z,1.47
2017-09-15T12:47:26.505Z,0.93
2017-09-15T12:49:55.010Z,1.23
2017-09-15T12:52:23.442Z,1.17
2017-09-15T12:54:51.871Z,0.97
2017-09-15T12:57:20.282Z,0.90
2017-09-15T12:59:48.752Z,0.93
2017-09-15T13:02:17.309Z,0.77
2017-09-15T13:04:45.720Z,0.77
2017-09-15T13:07:14.171Z,0.77
2017-09-15T13:09:42.658Z,0.83
2017-09-15T13:12:11.044Z,0.90
2017-09-15T13:14:39.478Z,1.30
2017-09-15T13:17:07.889Z,0.70
2017-09-15T13:19:36.274Z,0.83
2017-09-15T13:22:04.721Z,1.37
2017-09-15T13:24:33.101Z,1.10
2017-09-15T13:27:01.475Z,1.10
2017-09-15T13:29:29.908Z,1.33
2017-09-15T13:31:58.292Z,1.23
2017-09-15T13:34:26.673Z,1.20
2017-09-15T13:36:55.099Z,1.70
2017-09-15T13:39:23.479Z,4.50
2017-09-15T13:41:51.903Z,2.30
2017-09-15T13:44:20.331Z,2.47
2017-09-15T13:46:48.723Z,2.67
2017-09-15T13:49:17.132Z,1.60
2017-09-15T13:51:45.550Z,1.53
2017-09-15T13:54:13.951Z,2.00
2017-09-15T13:56:42.390Z,2.00
2017-09-15T13:59:10.837Z,1.70
2017-09-15T14:01:39.256Z,1.30
2017-09-15T14:04:07.704Z,0.87
2017-09-15T14:06:36.107Z,1.07
2017-09-15T14:09:04.638Z,0.97
2017-09-15T14:11:33.036Z,1.33
2017-09-15T14:14:01.504Z,0.95
2017-09-15T14:16:29.909Z,1.42
2017-09-15T14:18:58.325Z,2.17
2017-09-15T14:21:26.739Z,1.10
2017-09-15T14:23:55.119Z,1.17
2017-09-15T14:26:23.499Z,3.50
2017-09-15T14:28:51.925Z,1.70
2017-09-15T14:31:20.322Z,1.30
2017-09-15T14:33:48.752Z,32.50
2017-09-15T14:36:17.187Z,35.47
2017-09-15T14:38:45.584Z,2.28
2017-09-15T14:41:14.006Z,1.23
2017-09-15T14:43:42.472Z,25.40
2017-09-15T14:46:11.663Z,14.98
2017-09-15T14:48:40.099Z,2.90
2017-09-15T14:51:08.534Z,2.67
2017-09-15T14:53:36.915Z,2.50
2017-09-15T14:56:05.320Z,1.98
2017-09-15T14:58:34.011Z,1.30
2017-09-15T15:01:03.187Z,1.17
2017-09-15T15:03:31.574Z,1.70
2017-09-15T15:06:00.022Z,1.80
2017-09-15T15:08:28.560Z,1.10
2017-09-15T15:10:56.977Z,1.12
2017-09-15T15:13:25.722Z,1.20
2017-09-15T15:15:54.865Z,1.33
2017-09-15T15:18:23.247Z,1.67
2017-09-15T15:20:51.663Z,1.30
2017-09-15T15:23:20.048Z,0.90
2017-09-15T15:25:48.842Z,1.48
2017-09-15T15:28:18.220Z,1.05
2017-09-15T15:30:47.426Z,1.30
2017-09-15T15:33:16.614Z,3.25
2017-09-15T15:35:45.043Z,12.32
2017-09-15T15:38:13.447Z,4.60
2017-09-15T15:40:41.823Z,1.45
2017-09-15T15:43:10.265Z,3.75
2017-09-15T15:45:38.653Z,14.82
2017-09-15T15:48:07.472Z,3.62
2017-09-15T15:50:35.922Z,1.42
2017-09-15T15:53:04.314Z,1.65
2017-09-15T15:55:32.714Z,1.42
2017-09-15T15:58:01.147Z,1.20
2017-09-15T16:00:29.697Z,1.25
2017-09-15T16:02:58.337Z,2.05
2017-09-15T16:05:26.797Z,2.70
2017-09-15T16:07:55.171Z,2.37
2017-09-15T16:10:23.552Z,2.03
2017-09-15T16:12:51.987Z,1.10
2017-09-15T16:15:21.174Z,1.50
2017-09-15T16:17:49.557Z,1.52
2017-09-15T16:20:17.960Z,2.53
2017-09-15T16:22:46.338Z,2.15
2017-09-15T16:25:14.735Z,1.95
2017-09-15T16:27:43.972Z,3.03
2017-09-15T16:30:12.417Z,2.12
2017-09-15T16:32:41.591Z,2.50
2017-09-15T16:35:10.768Z,1.15
2017-09-15T16:37:38.573Z,1.73
2017-09-15T16:40:13.277Z,2.55
2017-09-15T16:42:47.119Z,2.22
2017-09-15T16:45:21.145Z,2.58
2017-09-15T16:47:54.956Z,3.37
2017-09-15T16:50:23.730Z,1.85
2017-09-15T16:52:52.175Z,3.33
2017-09-15T16:55:21.559Z,3.35
2017-09-15T16:57:50.178Z,3.33
2017-09-15T17:00:18.998Z,3.12
2017-09-15T17:02:47.518Z,2.60
2017-09-15T17:05:15.998Z,4.68
2017-09-15T17:07:46.248Z,2.70
2017-09-15T17:10:15.823Z,2.30
2017-09-15T17:12:45.534Z,2.70
2017-09-15T17:15:15.135Z,2.15
2017-09-15T17:17:43.592Z,3.08
2017-09-15T17:20:13.050Z,4.97
2017-09-15T17:22:42.616Z,2.80
2017-09-15T17:25:11.341Z,2.67
2017-09-15T17:27:40.210Z,2.33
2017-09-15T17:30:08.957Z,2.70
2017-09-15T17:32:37.905Z,2.03
2017-09-15T17:35:06.930Z,3.50
2017-09-15T17:37:35.520Z,2.78
2017-09-15T17:40:04.034Z,2.50
2017-09-15T17:42:32.826Z,2.17
2017-09-15T17:45:01.238Z,2.80
2017-09-15T17:47:30.894Z,2.55
2017-09-15T17:49:59.909Z,2.80
2017-09-15T17:52:30.313Z,2.78
2017-09-15T17:54:59.236Z,2.90
2017-09-15T17:57:28.049Z,1.90
2017-09-15T17:59:57.743Z,2.55
2017-09-15T18:02:27.393Z,3.17
2017-09-15T18:04:56.580Z,2.70
2017-09-15T18:07:26.371Z,2.62
2017-09-15T18:09:54.833Z,3.83
2017-09-15T18:12:24.239Z,4.00
2017-09-15T18:14:54.397Z,3.83
2017-09-15T18:17:22.836Z,3.90
2017-09-15T18:19:53.310Z,3.60
2017-09-15T18:22:22.845Z,3.70
2017-09-15T18:24:51.382Z,3.12
2017-09-15T18:27:19.870Z,3.10
2017-09-15T18:29:48.620Z,2.50
2017-09-15T18:32:17.694Z,4.40
2017-09-15T18:34:47.094Z,3.22
2017-09-15T18:37:15.621Z,4.68
2017-09-15T18:39:44.876Z,3.80
2017-09-15T18:42:13.387Z,5.10
2017-09-15T18:44:42.543Z,3.35
2017-09-15T18:47:11.088Z,3.55
2017-09-15T18:49:39.596Z,3.55
2017-09-15T18:52:08.119Z,5.30
2017-09-15T18:54:36.552Z,4.22
2017-09-15T18:57:05.023Z,2.97
2017-09-15T18:59:33.571Z,3.20
2017-09-15T19:02:02.937Z,3.83
2017-09-15T19:04:31.476Z,3.37
2017-09-15T19:07:00.199Z,4.12
2017-09-15T19:09:28.740Z,3.70
2017-09-15T19:11:57.453Z,3.92
2017-09-15T19:14:26.765Z,3.85
2017-09-15T19:16:55.560Z,4.05
2017-09-15T19:19:25.303Z,4.10
2017-09-15T19:21:54.618Z,3.45
2017-09-15T19:24:23.302Z,4.40
2017-09-15T19:26:52.030Z,4.90
2017-09-15T19:29:20.902Z,3.22
2017-09-15T19:31:49.512Z,4.50
2017-09-15T19:34:17.976Z,5.00
2017-09-15T19:36:46.857Z,3.90
2017-09-15T19:39:15.737Z,4.97
2017-09-15T19:41:44.943Z,4.32
2017-09-15T19:44:13.731Z,4.70
2017-09-15T19:46:43.827Z,4.10
2017-09-15T19:49:12.841Z,4.70
2017-09-15T19:51:41.607Z,4.20
2017-09-15T19:54:10.538Z,4.70
2017-09-15T19:56:39.514Z,4.10
2017-09-15T19:59:08.181Z,4.68
2017-09-15T20:01:36.681Z,3.60
2017-09-15T20:04:05.226Z,4.22
2017-09-15T20:06:33.822Z,4.75
2017-09-15T20:09:03.366Z,4.80
2017-09-15T20:11:56.039Z,4.82
2017-09-15T20:14:34.855Z,4.90
2017-09-15T20:17:10.402Z,5.62
2017-09-15T20:19:45.883Z,4.93
2017-09-15T20:22:14.784Z,6.00
2017-09-15T20:24:43.257Z,5.30
2017-09-15T20:27:11.705Z,4.30
2017-09-15T20:29:40.299Z,5.60
2017-09-15T20:32:08.776Z,4.80
2017-09-15T20:34:38.131Z,4.20
2017-09-15T20:37:06.672Z,4.90
2017-09-15T20:39:35.254Z,4.50
2017-09-15T20:42:03.669Z,4.55
2017-09-15T20:44:32.471Z,5.95
2017-09-15T20:47:00.902Z,4.35
2017-09-15T20:49:29.375Z,4.70
2017-09-15T20:51:57.875Z,8.40
2017-09-15T20:54:26.312Z,7.20
2017-09-15T20:56:54.734Z,7.28
2017-09-15T20:59:23.182Z,4.87
2017-09-15T21:01:51.635Z,5.20
2017-09-15T21:04:20.017Z,5.30
2017-09-15T21:06:48.496Z,5.15
2017-09-15T21:09:16.886Z,6.00
2017-09-15T21:11:45.623Z,5.37
2017-09-15T21:14:14.138Z,4.65
2017-09-15T21:16:42.685Z,6.45
2017-09-15T21:19:11.935Z,5.32
2017-09-15T21:21:40.387Z,5.57
2017-09-15T21:24:08.905Z,5.07
2017-09-15T21:26:37.344Z,5.28
2017-09-15T21:29:05.840Z,6.25
2017-09-15T21:31:34.336Z,6.70
2017-09-15T21:34:02.784Z,7.37
2017-09-15T21:36:31.276Z,6.90
2017-09-15T21:38:59.853Z,7.43
2017-09-15T21:41:28.569Z,7.57
2017-09-15T21:43:57.395Z,9.23
2017-09-15T21:46:26.212Z,7.28
2017-09-15T21:48:55.195Z,6.78
2017-09-15T21:51:23.651Z,7.80
2017-09-15T21:53:52.070Z,7.12
2017-09-15T21:56:20.624Z,6.45
2017-09-15T21:58:49.322Z,7.82
2017-09-15T22:01:17.751Z,7.70
2017-09-15T22:03:51.811Z,7.25
2017-09-15T22:06:20.820Z,5.93
2017-09-15T22:08:49.276Z,6.20
2017-09-15T22:11:17.686Z,6.60
2017-09-15T22:13:46.194Z,7.25
2017-09-15T22:16:14.907Z,6.25
2017-09-15T22:18:43.773Z,5.97
2017-09-15T22:21:13.324Z,6.30
2017-09-15T22:23:42.088Z,6.03
2017-09-15T22:26:10.706Z,7.78
2017-09-15T22:28:40.296Z,6.07
2017-09-15T22:31:08.970Z,7.80
2017-09-15T22:33:37.503Z,7.20
2017-09-15T22:36:06.160Z,7.72
2017-09-15T22:38:35.000Z,7.50
2017-09-15T22:41:03.848Z,8.35
2017-09-15T22:43:32.632Z,7.43
2017-09-15T22:46:01.233Z,7.90
2017-09-15T22:48:29.666Z,6.95
2017-09-15T22:50:58.884Z,6.70
2017-09-15T22:53:27.475Z,7.15
2017-09-15T22:55:56.517Z,8.05
2017-09-15T22:58:24.940Z,6.32
2017-09-15T23:00:53.326Z,8.13
2017-09-15T23:03:21.731Z,7.57
2017-09-15T23:05:50.111Z,7.35
2017-09-15T23:08:18.815Z,7.20
2017-09-15T23:10:47.201Z,8.98
2017-09-15T23:13:15.585Z,8.20
2017-09-15T23:15:44.016Z,8.55
2017-09-15T23:18:12.927Z,10.13
2017-09-15T23:20:57.356Z,8.65
2017-09-15T23:23:52.770Z,7.28
2017-09-15T23:26:45.363Z,7.62
2017-09-15T23:29:37.284Z,7.80
2017-09-15T23:32:06.944Z,7.53
2017-09-15T23:34:35.336Z,7.75
2017-09-15T23:37:03.722Z,7.68
2017-09-15T23:39:32.150Z,8.07
2017-09-15T23:42:00.966Z,8.38
2017-09-15T23:44:30.125Z,8.20
2017-09-15T23:46:58.556Z,9.05
2017-09-15T23:49:26.939Z,7.22
2017-09-15T23:51:55.352Z,7.95
2017-09-15T23:54:23.820Z,6.03
2017-09-15T23:56:52.232Z,6.22
2017-09-15T23:59:21.420Z,7.72
